aviador You're here:

CYVO Decoded Metar

VAL D'OR in QC, CANADA
Report Time2018-02-20 03:00:00
UTC Time2018-02-20 03:35:01
Flight Rules vfr VFR
Wind020° at 12 kt
W.Decomp.*RWY 36: 9.9 kt HW 6.7 kt RCW
W.Rank020° ranks 24
Current wind is above 020° avg. (7.1)
Visibility9999 m
Phenomena:Low Drifting Snow
Light Snow
Clouds:Overcast 031 Hf
Expected CloudBase > 800 ft AGL from Temp-Dew spread
Ceiling3,100 ft
Temp-13°C (ISA -26)
Dew Point-15°C (85% RH)
AAT-20.7°C
QNH1023 hPa
Density Alt-2,448 ft
Elevation1,106 ft
Report Wrong Elevation
Raw Report
CYVO 200300Z 02012KT 15SM -SN DRSN OVC031 M13/M15 A3021 RMK SC8
LAST STFD OBS/NEXT 201100UTC SLP259=

Extra information for CYVO:More info

Metar Taf Metar & Taf Last 4 Metars F.Rules Stats Wind Profile Meteogram Temp Stats Airport Information Weather charts Add Link Nearby VenuesMetar ALERT Operation Metar Decoded Social comments